sensor_id;sensor_type;location;lat;lon;timestamp;P1;durP1;ratioP1;P2;durP2;ratioP2
6638;SDS011;3355;52.882;8.430;2023-05-07T00:01:01;15.10;;;12.43;;
6638;SDS011;3355;52.882;8.430;2023-05-07T00:03:29;15.57;;;12.23;;
6638;SDS011;3355;52.882;8.430;2023-05-07T00:05:56;14.20;;;12.47;;
6638;SDS011;3355;52.882;8.430;2023-05-07T00:08:23;13.90;;;12.50;;
6638;SDS011;3355;52.882;8.430;2023-05-07T00:10:50;14.20;;;12.80;;
6638;SDS011;3355;52.882;8.430;2023-05-07T00:13:17;13.43;;;12.03;;
6638;SDS011;3355;52.882;8.430;2023-05-07T00:15:43;15.43;;;12.60;;
6638;SDS011;3355;52.882;8.430;2023-05-07T00:18:10;13.33;;;11.90;;
6638;SDS011;3355;52.882;8.430;2023-05-07T00:20:38;17.77;;;12.87;;
6638;SDS011;3355;52.882;8.430;2023-05-07T00:23:05;16.50;;;12.30;;
6638;SDS011;3355;52.882;8.430;2023-05-07T00:25:31;17.07;;;12.57;;
6638;SDS011;3355;52.882;8.430;2023-05-07T00:27:58;12.77;;;11.40;;
6638;SDS011;3355;52.882;8.430;2023-05-07T00:30:28;13.10;;;10.90;;
6638;SDS011;3355;52.882;8.430;2023-05-07T00:32:56;14.73;;;11.77;;
6638;SDS011;3355;52.882;8.430;2023-05-07T00:35:24;13.70;;;10.97;;
6638;SDS011;3355;52.882;8.430;2023-05-07T00:37:52;13.10;;;11.53;;
6638;SDS011;3355;52.882;8.430;2023-05-07T00:40:20;16.20;;;12.30;;
6638;SDS011;3355;52.882;8.430;2023-05-07T00:42:46;14.93;;;12.53;;
6638;SDS011;3355;52.882;8.430;2023-05-07T00:45:14;15.90;;;12.40;;
6638;SDS011;3355;52.882;8.430;2023-05-07T00:47:41;15.53;;;13.00;;
6638;SDS011;3355;52.882;8.430;2023-05-07T00:50:08;16.30;;;12.77;;
6638;SDS011;3355;52.882;8.430;2023-05-07T00:52:37;12.90;;;10.90;;
6638;SDS011;3355;52.882;8.430;2023-05-07T00:55:07;13.73;;;12.40;;
6638;SDS011;3355;52.882;8.430;2023-05-07T00:57:34;13.83;;;11.90;;
6638;SDS011;3355;52.882;8.430;2023-05-07T01:00:05;13.80;;;12.07;;
6638;SDS011;3355;52.882;8.430;2023-05-07T01:02:33;15.10;;;12.30;;
6638;SDS011;3355;52.882;8.430;2023-05-07T01:05:00;13.50;;;11.53;;
6638;SDS011;3355;52.882;8.430;2023-05-07T01:07:28;15.23;;;12.83;;
6638;SDS011;3355;52.882;8.430;2023-05-07T01:09:55;13.93;;;10.67;;
6638;SDS011;3355;52.882;8.430;2023-05-07T01:12:25;13.10;;;11.20;;
6638;SDS011;3355;52.882;8.430;2023-05-07T01:14:52;14.90;;;12.37;;
6638;SDS011;3355;52.882;8.430;2023-05-07T01:17:20;17.77;;;12.83;;
6638;SDS011;3355;52.882;8.430;2023-05-07T01:19:47;16.23;;;12.57;;
6638;SDS011;3355;52.882;8.430;2023-05-07T01:22:18;11.40;;;9.97;;
6638;SDS011;3355;52.882;8.430;2023-05-07T01:24:53;12.10;;;10.20;;
6638;SDS011;3355;52.882;8.430;2023-05-07T01:27:21;13.57;;;11.37;;
6638;SDS011;3355;52.882;8.430;2023-05-07T01:29:48;12.63;;;10.67;;
6638;SDS011;3355;52.882;8.430;2023-05-07T01:32:15;12.90;;;11.50;;
6638;SDS011;3355;52.882;8.430;2023-05-07T01:34:45;13.27;;;11.40;;
6638;SDS011;3355;52.882;8.430;2023-05-07T01:37:13;12.50;;;11.20;;
6638;SDS011;3355;52.882;8.430;2023-05-07T01:39:43;11.13;;;9.97;;
6638;SDS011;3355;52.882;8.430;2023-05-07T01:42:10;14.20;;;11.90;;
6638;SDS011;3355;52.882;8.430;2023-05-07T01:44:38;12.93;;;11.40;;
6638;SDS011;3355;52.882;8.430;2023-05-07T01:47:06;13.50;;;10.47;;
6638;SDS011;3355;52.882;8.430;2023-05-07T01:49:32;14.00;;;11.40;;
6638;SDS011;3355;52.882;8.430;2023-05-07T01:52:01;12.00;;;10.77;;
6638;SDS011;3355;52.882;8.430;2023-05-07T01:54:27;11.27;;;10.07;;
6638;SDS011;3355;52.882;8.430;2023-05-07T01:56:58;13.00;;;11.67;;
6638;SDS011;3355;52.882;8.430;2023-05-07T01:59:25;15.30;;;11.20;;
6638;SDS011;3355;52.882;8.430;2023-05-07T02:01:51;13.60;;;10.60;;
6638;SDS011;3355;52.882;8.430;2023-05-07T02:04:18;14.63;;;10.20;;
6638;SDS011;3355;52.882;8.430;2023-05-07T02:06:45;14.20;;;11.10;;
6638;SDS011;3355;52.882;8.430;2023-05-07T02:09:11;13.20;;;11.00;;
6638;SDS011;3355;52.882;8.430;2023-05-07T02:11:39;12.07;;;10.77;;
6638;SDS011;3355;52.882;8.430;2023-05-07T02:14:07;11.27;;;10.13;;
6638;SDS011;3355;52.882;8.430;2023-05-07T02:16:34;11.63;;;9.87;;
6638;SDS011;3355;52.882;8.430;2023-05-07T02:19:03;15.03;;;12.60;;
6638;SDS011;3355;52.882;8.430;2023-05-07T02:21:30;12.73;;;10.80;;
6638;SDS011;3355;52.882;8.430;2023-05-07T02:23:58;12.10;;;9.70;;
6638;SDS011;3355;52.882;8.430;2023-05-07T02:26:25;12.60;;;10.07;;
6638;SDS011;3355;52.882;8.430;2023-05-07T02:28:52;13.60;;;10.53;;
6638;SDS011;3355;52.882;8.430;2023-05-07T02:31:21;12.40;;;10.40;;
6638;SDS011;3355;52.882;8.430;2023-05-07T02:33:48;11.90;;;10.60;;
6638;SDS011;3355;52.882;8.430;2023-05-07T02:36:14;14.03;;;10.63;;
6638;SDS011;3355;52.882;8.430;2023-05-07T02:38:41;13.60;;;11.10;;
6638;SDS011;3355;52.882;8.430;2023-05-07T02:41:08;16.50;;;11.70;;
6638;SDS011;3355;52.882;8.430;2023-05-07T02:43:35;15.20;;;11.63;;
6638;SDS011;3355;52.882;8.430;2023-05-07T02:46:02;16.87;;;12.20;;
6638;SDS011;3355;52.882;8.430;2023-05-07T02:48:32;14.67;;;10.83;;
6638;SDS011;3355;52.882;8.430;2023-05-07T02:50:59;13.27;;;11.70;;
6638;SDS011;3355;52.882;8.430;2023-05-07T02:53:26;14.10;;;12.00;;
6638;SDS011;3355;52.882;8.430;2023-05-07T02:55:54;17.37;;;12.67;;
6638;SDS011;3355;52.882;8.430;2023-05-07T02:58:21;14.13;;;11.00;;
6638;SDS011;3355;52.882;8.430;2023-05-07T03:00:48;13.97;;;12.23;;
6638;SDS011;3355;52.882;8.430;2023-05-07T03:03:15;15.93;;;13.30;;
6638;SDS011;3355;52.882;8.430;2023-05-07T03:05:43;13.27;;;11.33;;
6638;SDS011;3355;52.882;8.430;2023-05-07T03:08:10;16.70;;;13.17;;
6638;SDS011;3355;52.882;8.430;2023-05-07T03:10:36;17.03;;;11.90;;
6638;SDS011;3355;52.882;8.430;2023-05-07T03:13:06;16.17;;;12.70;;
6638;SDS011;3355;52.882;8.430;2023-05-07T03:15:32;14.93;;;11.60;;
6638;SDS011;3355;52.882;8.430;2023-05-07T03:17:59;14.53;;;12.00;;
6638;SDS011;3355;52.882;8.430;2023-05-07T03:20:26;19.80;;;13.90;;
6638;SDS011;3355;52.882;8.430;2023-05-07T03:22:54;17.73;;;13.17;;
6638;SDS011;3355;52.882;8.430;2023-05-07T03:25:21;15.50;;;12.43;;
6638;SDS011;3355;52.882;8.430;2023-05-07T03:27:48;15.27;;;12.43;;
6638;SDS011;3355;52.882;8.430;2023-05-07T03:30:14;16.43;;;12.67;;
6638;SDS011;3355;52.882;8.430;2023-05-07T03:32:44;16.00;;;12.00;;
6638;SDS011;3355;52.882;8.430;2023-05-07T03:35:10;16.73;;;13.23;;
6638;SDS011;3355;52.882;8.430;2023-05-07T03:37:38;15.13;;;11.70;;
6638;SDS011;3355;52.882;8.430;2023-05-07T03:40:08;14.83;;;12.90;;
6638;SDS011;3355;52.882;8.430;2023-05-07T03:42:37;15.03;;;11.03;;
6638;SDS011;3355;52.882;8.430;2023-05-07T03:45:03;14.87;;;13.33;;
6638;SDS011;3355;52.882;8.430;2023-05-07T03:47:31;12.53;;;10.37;;
6638;SDS011;3355;52.882;8.430;2023-05-07T03:49:58;11.97;;;10.73;;
6638;SDS011;3355;52.882;8.430;2023-05-07T03:52:25;15.13;;;11.60;;
6638;SDS011;3355;52.882;8.430;2023-05-07T03:54:52;16.90;;;13.27;;
6638;SDS011;3355;52.882;8.430;2023-05-07T03:57:20;15.53;;;13.83;;
6638;SDS011;3355;52.882;8.430;2023-05-07T03:59:47;16.50;;;12.83;;
6638;SDS011;3355;52.882;8.430;2023-05-07T04:02:14;16.47;;;13.07;;
6638;SDS011;3355;52.882;8.430;2023-05-07T04:04:41;16.77;;;13.43;;
6638;SDS011;3355;52.882;8.430;2023-05-07T04:07:08;17.07;;;13.33;;
6638;SDS011;3355;52.882;8.430;2023-05-07T04:09:35;15.40;;;12.93;;
6638;SDS011;3355;52.882;8.430;2023-05-07T04:12:01;16.63;;;12.93;;
6638;SDS011;3355;52.882;8.430;2023-05-07T04:14:30;17.37;;;12.57;;
6638;SDS011;3355;52.882;8.430;2023-05-07T04:16:57;14.90;;;12.77;;
6638;SDS011;3355;52.882;8.430;2023-05-07T04:19:24;17.13;;;12.97;;
6638;SDS011;3355;52.882;8.430;2023-05-07T04:21:51;17.80;;;13.80;;
6638;SDS011;3355;52.882;8.430;2023-05-07T04:24:17;16.70;;;13.23;;
6638;SDS011;3355;52.882;8.430;2023-05-07T04:26:45;19.33;;;13.17;;
6638;SDS011;3355;52.882;8.430;2023-05-07T04:29:11;15.87;;;13.27;;
6638;SDS011;3355;52.882;8.430;2023-05-07T04:31:40;16.80;;;12.40;;
6638;SDS011;3355;52.882;8.430;2023-05-07T04:34:09;15.50;;;13.10;;
6638;SDS011;3355;52.882;8.430;2023-05-07T04:36:36;20.10;;;12.83;;
6638;SDS011;3355;52.882;8.430;2023-05-07T04:39:03;17.40;;;13.17;;
6638;SDS011;3355;52.882;8.430;2023-05-07T04:41:29;17.33;;;13.33;;
6638;SDS011;3355;52.882;8.430;2023-05-07T04:43:56;18.93;;;13.13;;
6638;SDS011;3355;52.882;8.430;2023-05-07T04:46:23;16.60;;;13.50;;
6638;SDS011;3355;52.882;8.430;2023-05-07T04:48:52;19.10;;;14.60;;
6638;SDS011;3355;52.882;8.430;2023-05-07T04:51:18;15.80;;;14.00;;
6638;SDS011;3355;52.882;8.430;2023-05-07T04:53:45;17.03;;;12.30;;
6638;SDS011;3355;52.882;8.430;2023-05-07T04:56:13;21.90;;;13.93;;
6638;SDS011;3355;52.882;8.430;2023-05-07T04:58:40;18.87;;;13.93;;
6638;SDS011;3355;52.882;8.430;2023-05-07T05:01:07;20.43;;;14.57;;
6638;SDS011;3355;52.882;8.430;2023-05-07T05:03:33;16.97;;;13.30;;
6638;SDS011;3355;52.882;8.430;2023-05-07T05:06:01;15.47;;;12.43;;
6638;SDS011;3355;52.882;8.430;2023-05-07T05:08:29;18.47;;;14.10;;
6638;SDS011;3355;52.882;8.430;2023-05-07T05:10:56;14.97;;;12.30;;
6638;SDS011;3355;52.882;8.430;2023-05-07T05:13:23;15.20;;;12.37;;
6638;SDS011;3355;52.882;8.430;2023-05-07T05:15:50;16.10;;;11.10;;
6638;SDS011;3355;52.882;8.430;2023-05-07T05:18:16;19.50;;;13.37;;
6638;SDS011;3355;52.882;8.430;2023-05-07T05:20:43;17.40;;;13.33;;
6638;SDS011;3355;52.882;8.430;2023-05-07T05:23:11;16.00;;;12.37;;
6638;SDS011;3355;52.882;8.430;2023-05-07T05:25:38;15.97;;;13.63;;
6638;SDS011;3355;52.882;8.430;2023-05-07T05:28:05;15.10;;;12.40;;
6638;SDS011;3355;52.882;8.430;2023-05-07T05:30:32;13.33;;;11.40;;
6638;SDS011;3355;52.882;8.430;2023-05-07T05:32:58;14.40;;;11.10;;
6638;SDS011;3355;52.882;8.430;2023-05-07T05:35:25;16.50;;;12.60;;
6638;SDS011;3355;52.882;8.430;2023-05-07T05:37:52;17.17;;;12.10;;
6638;SDS011;3355;52.882;8.430;2023-05-07T05:40:21;15.73;;;12.17;;
6638;SDS011;3355;52.882;8.430;2023-05-07T05:42:47;12.37;;;10.97;;
6638;SDS011;3355;52.882;8.430;2023-05-07T05:45:14;13.80;;;10.63;;
6638;SDS011;3355;52.882;8.430;2023-05-07T05:47:40;15.87;;;12.43;;
6638;SDS011;3355;52.882;8.430;2023-05-07T05:50:08;15.10;;;11.80;;
6638;SDS011;3355;52.882;8.430;2023-05-07T05:52:35;17.00;;;11.70;;
6638;SDS011;3355;52.882;8.430;2023-05-07T05:55:02;13.53;;;10.60;;
6638;SDS011;3355;52.882;8.430;2023-05-07T05:57:30;15.73;;;11.13;;
6638;SDS011;3355;52.882;8.430;2023-05-07T05:59:57;12.10;;;9.63;;
6638;SDS011;3355;52.882;8.430;2023-05-07T06:02:25;12.57;;;9.50;;
6638;SDS011;3355;52.882;8.430;2023-05-07T06:04:52;12.30;;;9.47;;
6638;SDS011;3355;52.882;8.430;2023-05-07T06:07:18;12.00;;;10.17;;
6638;SDS011;3355;52.882;8.430;2023-05-07T06:09:45;10.90;;;8.20;;
6638;SDS011;3355;52.882;8.430;2023-05-07T06:12:12;10.47;;;9.23;;
6638;SDS011;3355;52.882;8.430;2023-05-07T06:14:40;10.57;;;8.93;;
6638;SDS011;3355;52.882;8.430;2023-05-07T06:17:08;13.97;;;9.57;;
6638;SDS011;3355;52.882;8.430;2023-05-07T06:19:35;10.60;;;8.73;;
6638;SDS011;3355;52.882;8.430;2023-05-07T06:22:02;8.87;;;7.67;;
6638;SDS011;3355;52.882;8.430;2023-05-07T06:24:29;11.00;;;9.50;;
6638;SDS011;3355;52.882;8.430;2023-05-07T06:26:55;12.77;;;8.97;;
6638;SDS011;3355;52.882;8.430;2023-05-07T06:29:23;8.90;;;7.97;;
6638;SDS011;3355;52.882;8.430;2023-05-07T06:31:52;11.37;;;9.13;;
6638;SDS011;3355;52.882;8.430;2023-05-07T06:34:19;10.70;;;8.97;;
6638;SDS011;3355;52.882;8.430;2023-05-07T06:36:45;9.17;;;7.97;;
6638;SDS011;3355;52.882;8.430;2023-05-07T06:39:12;8.57;;;7.73;;
6638;SDS011;3355;52.882;8.430;2023-05-07T06:41:38;10.07;;;7.90;;
6638;SDS011;3355;52.882;8.430;2023-05-07T06:44:05;9.30;;;7.60;;
6638;SDS011;3355;52.882;8.430;2023-05-07T06:46:32;11.43;;;8.70;;
6638;SDS011;3355;52.882;8.430;2023-05-07T06:49:00;8.80;;;7.67;;
6638;SDS011;3355;52.882;8.430;2023-05-07T06:51:26;11.13;;;8.73;;
6638;SDS011;3355;52.882;8.430;2023-05-07T06:53:53;9.90;;;8.40;;
6638;SDS011;3355;52.882;8.430;2023-05-07T06:56:20;10.80;;;8.63;;
6638;SDS011;3355;52.882;8.430;2023-05-07T06:58:47;10.50;;;8.13;;
6638;SDS011;3355;52.882;8.430;2023-05-07T07:01:14;9.53;;;8.07;;
6638;SDS011;3355;52.882;8.430;2023-05-07T07:03:41;12.47;;;9.50;;
6638;SDS011;3355;52.882;8.430;2023-05-07T07:06:09;11.20;;;8.57;;
6638;SDS011;3355;52.882;8.430;2023-05-07T07:08:36;10.50;;;8.50;;
6638;SDS011;3355;52.882;8.430;2023-05-07T07:11:03;10.73;;;8.70;;
6638;SDS011;3355;52.882;8.430;2023-05-07T07:13:30;11.50;;;8.17;;
6638;SDS011;3355;52.882;8.430;2023-05-07T07:15:57;9.30;;;7.40;;
6638;SDS011;3355;52.882;8.430;2023-05-07T07:18:24;12.20;;;9.00;;
6638;SDS011;3355;52.882;8.430;2023-05-07T07:20:50;10.17;;;7.83;;
6638;SDS011;3355;52.882;8.430;2023-05-07T07:23:18;9.53;;;7.80;;
6638;SDS011;3355;52.882;8.430;2023-05-07T07:25:45;11.03;;;8.83;;
6638;SDS011;3355;52.882;8.430;2023-05-07T07:28:12;9.33;;;7.83;;
6638;SDS011;3355;52.882;8.430;2023-05-07T07:30:39;10.87;;;9.33;;
6638;SDS011;3355;52.882;8.430;2023-05-07T07:33:05;10.50;;;8.63;;
6638;SDS011;3355;52.882;8.430;2023-05-07T07:35:32;10.50;;;8.27;;
6638;SDS011;3355;52.882;8.430;2023-05-07T07:38:02;12.50;;;9.40;;
6638;SDS011;3355;52.882;8.430;2023-05-07T07:40:30;12.23;;;9.33;;
6638;SDS011;3355;52.882;8.430;2023-05-07T07:42:57;12.40;;;8.87;;
6638;SDS011;3355;52.882;8.430;2023-05-07T07:45:24;12.83;;;8.07;;
6638;SDS011;3355;52.882;8.430;2023-05-07T07:47:51;10.40;;;8.80;;
6638;SDS011;3355;52.882;8.430;2023-05-07T07:50:18;11.00;;;8.23;;
6638;SDS011;3355;52.882;8.430;2023-05-07T07:52:45;13.47;;;9.90;;
6638;SDS011;3355;52.882;8.430;2023-05-07T07:55:12;12.13;;;9.63;;
6638;SDS011;3355;52.882;8.430;2023-05-07T07:57:41;9.40;;;8.40;;
6638;SDS011;3355;52.882;8.430;2023-05-07T08:00:08;14.37;;;10.20;;
6638;SDS011;3355;52.882;8.430;2023-05-07T08:02:38;12.53;;;9.60;;
6638;SDS011;3355;52.882;8.430;2023-05-07T08:05:05;9.60;;;8.10;;
6638;SDS011;3355;52.882;8.430;2023-05-07T08:07:32;9.73;;;8.00;;
6638;SDS011;3355;52.882;8.430;2023-05-07T08:09:59;12.53;;;10.10;;
6638;SDS011;3355;52.882;8.430;2023-05-07T08:12:26;10.30;;;9.20;;
6638;SDS011;3355;52.882;8.430;2023-05-07T08:14:54;10.67;;;8.83;;
6638;SDS011;3355;52.882;8.430;2023-05-07T08:17:21;9.23;;;8.23;;
6638;SDS011;3355;52.882;8.430;2023-05-07T08:19:48;10.07;;;8.80;;
6638;SDS011;3355;52.882;8.430;2023-05-07T08:22:14;10.47;;;8.80;;
6638;SDS011;3355;52.882;8.430;2023-05-07T08:24:42;11.23;;;8.80;;
6638;SDS011;3355;52.882;8.430;2023-05-07T08:27:09;8.80;;;7.90;;
6638;SDS011;3355;52.882;8.430;2023-05-07T08:29:36;9.97;;;8.50;;
6638;SDS011;3355;52.882;8.430;2023-05-07T08:32:04;9.60;;;8.20;;
6638;SDS011;3355;52.882;8.430;2023-05-07T08:34:31;10.70;;;9.17;;
6638;SDS011;3355;52.882;8.430;2023-05-07T08:36:58;10.03;;;8.83;;
6638;SDS011;3355;52.882;8.430;2023-05-07T08:39:25;9.40;;;8.40;;
6638;SDS011;3355;52.882;8.430;2023-05-07T08:41:51;8.93;;;7.73;;
6638;SDS011;3355;52.882;8.430;2023-05-07T08:44:21;9.37;;;8.37;;
6638;SDS011;3355;52.882;8.430;2023-05-07T08:46:49;10.73;;;8.70;;
6638;SDS011;3355;52.882;8.430;2023-05-07T08:49:20;9.07;;;8.17;;
6638;SDS011;3355;52.882;8.430;2023-05-07T08:51:47;8.30;;;7.50;;
6638;SDS011;3355;52.882;8.430;2023-05-07T08:54:15;9.60;;;8.30;;
6638;SDS011;3355;52.882;8.430;2023-05-07T08:56:42;9.83;;;7.70;;
6638;SDS011;3355;52.882;8.430;2023-05-07T08:59:09;8.17;;;7.03;;
6638;SDS011;3355;52.882;8.430;2023-05-07T09:01:36;8.23;;;7.47;;
6638;SDS011;3355;52.882;8.430;2023-05-07T09:04:03;8.90;;;7.80;;
6638;SDS011;3355;52.882;8.430;2023-05-07T09:06:32;9.37;;;8.47;;
6638;SDS011;3355;52.882;8.430;2023-05-07T09:08:59;9.27;;;7.77;;
6638;SDS011;3355;52.882;8.430;2023-05-07T09:11:27;8.43;;;7.53;;
6638;SDS011;3355;52.882;8.430;2023-05-07T09:13:54;9.57;;;7.90;;
6638;SDS011;3355;52.882;8.430;2023-05-07T09:16:23;9.53;;;7.07;;
6638;SDS011;3355;52.882;8.430;2023-05-07T09:18:50;9.73;;;8.63;;
6638;SDS011;3355;52.882;8.430;2023-05-07T09:21:17;9.30;;;8.40;;
6638;SDS011;3355;52.882;8.430;2023-05-07T09:23:46;7.10;;;6.40;;
6638;SDS011;3355;52.882;8.430;2023-05-07T09:26:14;8.73;;;7.60;;
6638;SDS011;3355;52.882;8.430;2023-05-07T09:28:41;7.87;;;6.80;;
6638;SDS011;3355;52.882;8.430;2023-05-07T09:31:08;8.53;;;7.70;;
6638;SDS011;3355;52.882;8.430;2023-05-07T09:33:35;9.23;;;7.80;;
6638;SDS011;3355;52.882;8.430;2023-05-07T09:36:02;7.40;;;6.70;;
6638;SDS011;3355;52.882;8.430;2023-05-07T09:38:30;9.27;;;8.17;;
6638;SDS011;3355;52.882;8.430;2023-05-07T09:41:05;8.77;;;7.90;;
6638;SDS011;3355;52.882;8.430;2023-05-07T09:43:34;8.00;;;7.20;;
6638;SDS011;3355;52.882;8.430;2023-05-07T09:46:02;8.40;;;7.60;;
6638;SDS011;3355;52.882;8.430;2023-05-07T09:48:30;7.50;;;6.80;;
6638;SDS011;3355;52.882;8.430;2023-05-07T09:50:56;8.07;;;7.27;;
6638;SDS011;3355;52.882;8.430;2023-05-07T09:53:28;8.33;;;7.53;;
6638;SDS011;3355;52.882;8.430;2023-05-07T10:01:13;7.90;;;7.20;;
6638;SDS011;3355;52.882;8.430;2023-05-07T10:03:40;7.97;;;7.27;;
6638;SDS011;3355;52.882;8.430;2023-05-07T10:06:08;8.40;;;7.47;;
6638;SDS011;3355;52.882;8.430;2023-05-07T10:08:41;8.53;;;7.73;;
6638;SDS011;3355;52.882;8.430;2023-05-07T10:11:09;8.20;;;7.40;;
6638;SDS011;3355;52.882;8.430;2023-05-07T10:13:43;7.57;;;6.87;;
6638;SDS011;3355;52.882;8.430;2023-05-07T10:16:24;8.43;;;7.63;;
6638;SDS011;3355;52.882;8.430;2023-05-07T10:19:07;8.43;;;7.63;;
6638;SDS011;3355;52.882;8.430;2023-05-07T10:21:35;7.60;;;6.77;;
6638;SDS011;3355;52.882;8.430;2023-05-07T10:24:04;8.90;;;8.00;;
6638;SDS011;3355;52.882;8.430;2023-05-07T10:26:33;8.70;;;7.90;;
6638;SDS011;3355;52.882;8.430;2023-05-07T10:29:03;8.60;;;7.80;;
6638;SDS011;3355;52.882;8.430;2023-05-07T10:31:41;8.73;;;7.83;;
6638;SDS011;3355;52.882;8.430;2023-05-07T10:34:16;7.77;;;7.07;;
6638;SDS011;3355;52.882;8.430;2023-05-07T10:36:43;8.10;;;7.40;;
6638;SDS011;3355;52.882;8.430;2023-05-07T10:39:11;17.40;;;9.13;;
6638;SDS011;3355;52.882;8.430;2023-05-07T10:41:38;9.63;;;8.63;;
6638;SDS011;3355;52.882;8.430;2023-05-07T10:44:06;8.93;;;8.13;;
6638;SDS011;3355;52.882;8.430;2023-05-07T10:46:33;9.80;;;8.90;;
6638;SDS011;3355;52.882;8.430;2023-05-07T10:49:06;9.27;;;8.37;;
6638;SDS011;3355;52.882;8.430;2023-05-07T10:51:40;9.17;;;8.27;;
6638;SDS011;3355;52.882;8.430;2023-05-07T10:54:19;10.00;;;8.53;;
6638;SDS011;3355;52.882;8.430;2023-05-07T10:56:46;9.53;;;8.57;;
6638;SDS011;3355;52.882;8.430;2023-05-07T11:02:08;8.20;;;7.40;;
6638;SDS011;3355;52.882;8.430;2023-05-07T11:04:39;8.63;;;7.90;;
6638;SDS011;3355;52.882;8.430;2023-05-07T11:07:25;8.70;;;7.90;;
6638;SDS011;3355;52.882;8.430;2023-05-07T11:09:56;8.00;;;7.30;;
6638;SDS011;3355;52.882;8.430;2023-05-07T11:15:40;9.87;;;8.97;;
6638;SDS011;3355;52.882;8.430;2023-05-07T11:18:09;9.00;;;8.10;;
6638;SDS011;3355;52.882;8.430;2023-05-07T11:20:50;7.87;;;7.17;;
6638;SDS011;3355;52.882;8.430;2023-05-07T11:26:22;9.53;;;8.40;;
6638;SDS011;3355;52.882;8.430;2023-05-07T11:28:58;7.30;;;6.70;;
6638;SDS011;3355;52.882;8.430;2023-05-07T11:31:35;8.30;;;7.53;;
6638;SDS011;3355;52.882;8.430;2023-05-07T11:34:14;8.40;;;7.50;;
6638;SDS011;3355;52.882;8.430;2023-05-07T11:36:42;8.50;;;7.70;;
6638;SDS011;3355;52.882;8.430;2023-05-07T11:39:27;7.93;;;7.20;;
6638;SDS011;3355;52.882;8.430;2023-05-07T11:41:58;8.60;;;7.80;;
6638;SDS011;3355;52.882;8.430;2023-05-07T11:44:24;7.33;;;6.60;;
6638;SDS011;3355;52.882;8.430;2023-05-07T11:46:52;7.90;;;7.20;;
6638;SDS011;3355;52.882;8.430;2023-05-07T11:49:19;8.67;;;7.77;;
6638;SDS011;3355;52.882;8.430;2023-05-07T11:51:45;8.40;;;7.23;;
6638;SDS011;3355;52.882;8.430;2023-05-07T11:54:15;8.20;;;7.40;;
6638;SDS011;3355;52.882;8.430;2023-05-07T11:56:42;9.93;;;8.93;;
6638;SDS011;3355;52.882;8.430;2023-05-07T11:59:08;7.60;;;6.90;;
6638;SDS011;3355;52.882;8.430;2023-05-07T12:01:35;7.37;;;6.77;;
6638;SDS011;3355;52.882;8.430;2023-05-07T12:04:04;7.60;;;6.90;;
6638;SDS011;3355;52.882;8.430;2023-05-07T12:06:31;7.53;;;6.77;;
6638;SDS011;3355;52.882;8.430;2023-05-07T12:08:57;7.80;;;7.10;;
6638;SDS011;3355;52.882;8.430;2023-05-07T12:11:24;8.23;;;7.53;;
6638;SDS011;3355;52.882;8.430;2023-05-07T12:13:51;7.17;;;6.50;;
6638;SDS011;3355;52.882;8.430;2023-05-07T12:16:18;8.33;;;7.43;;
6638;SDS011;3355;52.882;8.430;2023-05-07T12:18:45;7.43;;;6.73;;
6638;SDS011;3355;52.882;8.430;2023-05-07T12:21:13;8.00;;;7.23;;
6638;SDS011;3355;52.882;8.430;2023-05-07T12:23:42;7.47;;;6.80;;
6638;SDS011;3355;52.882;8.430;2023-05-07T12:26:09;7.70;;;7.00;;
6638;SDS011;3355;52.882;8.430;2023-05-07T12:28:36;8.20;;;7.40;;
6638;SDS011;3355;52.882;8.430;2023-05-07T12:31:03;7.80;;;7.00;;
6638;SDS011;3355;52.882;8.430;2023-05-07T12:33:30;7.73;;;6.93;;
6638;SDS011;3355;52.882;8.430;2023-05-07T12:35:57;7.53;;;6.83;;
6638;SDS011;3355;52.882;8.430;2023-05-07T12:38:26;7.70;;;6.90;;
6638;SDS011;3355;52.882;8.430;2023-05-07T12:40:53;8.90;;;7.37;;
6638;SDS011;3355;52.882;8.430;2023-05-07T12:43:21;7.30;;;6.63;;
6638;SDS011;3355;52.882;8.430;2023-05-07T12:45:49;9.50;;;6.97;;
6638;SDS011;3355;52.882;8.430;2023-05-07T12:48:16;7.20;;;6.50;;
6638;SDS011;3355;52.882;8.430;2023-05-07T12:50:43;7.87;;;7.10;;
6638;SDS011;3355;52.882;8.430;2023-05-07T12:53:11;7.40;;;6.70;;
6638;SDS011;3355;52.882;8.430;2023-05-07T12:55:42;7.00;;;6.40;;
6638;SDS011;3355;52.882;8.430;2023-05-07T12:58:14;7.10;;;6.50;;
6638;SDS011;3355;52.882;8.430;2023-05-07T13:00:42;7.80;;;7.10;;
6638;SDS011;3355;52.882;8.430;2023-05-07T13:03:09;6.53;;;5.90;;
6638;SDS011;3355;52.882;8.430;2023-05-07T13:05:36;7.13;;;6.43;;
6638;SDS011;3355;52.882;8.430;2023-05-07T13:08:02;7.63;;;6.93;;
6638;SDS011;3355;52.882;8.430;2023-05-07T13:10:30;8.37;;;7.67;;
6638;SDS011;3355;52.882;8.430;2023-05-07T13:12:58;8.43;;;7.63;;
6638;SDS011;3355;52.882;8.430;2023-05-07T13:15:25;7.47;;;6.87;;
6638;SDS011;3355;52.882;8.430;2023-05-07T13:17:52;7.70;;;7.00;;
6638;SDS011;3355;52.882;8.430;2023-05-07T13:20:18;7.33;;;6.63;;
6638;SDS011;3355;52.882;8.430;2023-05-07T13:22:45;8.27;;;7.47;;
6638;SDS011;3355;52.882;8.430;2023-05-07T13:25:11;8.47;;;7.77;;
6638;SDS011;3355;52.882;8.430;2023-05-07T13:27:38;8.23;;;7.40;;
6638;SDS011;3355;52.882;8.430;2023-05-07T13:30:06;8.10;;;7.40;;
6638;SDS011;3355;52.882;8.430;2023-05-07T13:32:33;7.27;;;6.57;;
6638;SDS011;3355;52.882;8.430;2023-05-07T13:35:00;8.10;;;7.40;;
6638;SDS011;3355;52.882;8.430;2023-05-07T13:37:27;8.13;;;7.43;;
6638;SDS011;3355;52.882;8.430;2023-05-07T13:39:53;8.43;;;7.63;;
6638;SDS011;3355;52.882;8.430;2023-05-07T13:42:20;8.43;;;7.63;;
6638;SDS011;3355;52.882;8.430;2023-05-07T13:44:46;8.47;;;7.60;;
6638;SDS011;3355;52.882;8.430;2023-05-07T13:47:14;7.93;;;7.10;;
6638;SDS011;3355;52.882;8.430;2023-05-07T13:49:41;8.07;;;7.27;;
6638;SDS011;3355;52.882;8.430;2023-05-07T13:52:07;8.90;;;8.10;;
6638;SDS011;3355;52.882;8.430;2023-05-07T13:54:33;8.07;;;7.03;;
6638;SDS011;3355;52.882;8.430;2023-05-07T13:57:00;8.13;;;7.33;;
6638;SDS011;3355;52.882;8.430;2023-05-07T13:59:26;7.63;;;6.93;;
6638;SDS011;3355;52.882;8.430;2023-05-07T14:01:53;7.80;;;7.10;;
6638;SDS011;3355;52.882;8.430;2023-05-07T14:04:21;7.20;;;6.60;;
6638;SDS011;3355;52.882;8.430;2023-05-07T14:06:48;7.63;;;6.90;;
6638;SDS011;3355;52.882;8.430;2023-05-07T14:09:14;7.03;;;6.27;;
6638;SDS011;3355;52.882;8.430;2023-05-07T14:11:41;8.30;;;7.50;;
6638;SDS011;3355;52.882;8.430;2023-05-07T14:14:07;7.57;;;6.97;;
6638;SDS011;3355;52.882;8.430;2023-05-07T14:16:35;7.10;;;6.50;;
6638;SDS011;3355;52.882;8.430;2023-05-07T14:19:02;12.03;;;7.30;;
6638;SDS011;3355;52.882;8.430;2023-05-07T14:21:30;7.60;;;6.90;;
6638;SDS011;3355;52.882;8.430;2023-05-07T14:23:56;10.67;;;9.73;;
6638;SDS011;3355;52.882;8.430;2023-05-07T14:26:23;12.10;;;10.90;;
6638;SDS011;3355;52.882;8.430;2023-05-07T14:28:51;10.80;;;9.70;;
6638;SDS011;3355;52.882;8.430;2023-05-07T14:31:19;10.40;;;9.43;;
6638;SDS011;3355;52.882;8.430;2023-05-07T14:33:46;8.33;;;7.63;;
6638;SDS011;3355;52.882;8.430;2023-05-07T14:36:14;9.70;;;8.80;;
6638;SDS011;3355;52.882;8.430;2023-05-07T14:38:42;8.00;;;7.20;;
6638;SDS011;3355;52.882;8.430;2023-05-07T14:41:09;7.53;;;6.83;;
6638;SDS011;3355;52.882;8.430;2023-05-07T14:43:36;7.60;;;6.90;;
6638;SDS011;3355;52.882;8.430;2023-05-07T14:46:02;8.53;;;7.73;;
6638;SDS011;3355;52.882;8.430;2023-05-07T14:48:29;8.37;;;7.57;;
6638;SDS011;3355;52.882;8.430;2023-05-07T14:50:55;8.03;;;7.20;;
6638;SDS011;3355;52.882;8.430;2023-05-07T14:53:22;6.97;;;6.37;;
6638;SDS011;3355;52.882;8.430;2023-05-07T14:55:50;7.53;;;6.73;;
6638;SDS011;3355;52.882;8.430;2023-05-07T14:58:17;6.53;;;5.93;;
6638;SDS011;3355;52.882;8.430;2023-05-07T15:00:43;7.60;;;6.80;;
6638;SDS011;3355;52.882;8.430;2023-05-07T15:03:10;6.60;;;6.00;;
6638;SDS011;3355;52.882;8.430;2023-05-07T15:05:38;7.13;;;6.43;;
6638;SDS011;3355;52.882;8.430;2023-05-07T15:08:04;7.30;;;6.70;;
6638;SDS011;3355;52.882;8.430;2023-05-07T15:10:31;7.37;;;6.67;;
6638;SDS011;3355;52.882;8.430;2023-05-07T15:13:06;7.77;;;7.03;;
6638;SDS011;3355;52.882;8.430;2023-05-07T15:15:33;6.60;;;6.00;;
6638;SDS011;3355;52.882;8.430;2023-05-07T15:17:59;7.13;;;6.50;;
6638;SDS011;3355;52.882;8.430;2023-05-07T15:20:26;7.67;;;6.97;;